createdAt,value
2022-12-17T00:01:05.036Z,62.10
2022-12-17T00:03:51.384Z,59.10
2022-12-17T00:06:37.929Z,66.07
2022-12-17T00:09:23.618Z,71.65
2022-12-17T00:12:10.138Z,72.50
2022-12-17T00:14:55.583Z,66.88
2022-12-17T00:17:42.930Z,71.00
2022-12-17T00:20:29.204Z,65.72
2022-12-17T00:23:18.779Z,64.57
2022-12-17T00:26:09.740Z,70.60
2022-12-17T00:28:55.247Z,79.30
2022-12-17T00:31:43.533Z,68.28
2022-12-17T00:34:30.676Z,68.68
2022-12-17T00:37:16.562Z,69.95
2022-12-17T00:40:12.251Z,66.22
2022-12-17T00:42:57.690Z,58.33
2022-12-17T00:45:42.914Z,57.03
2022-12-17T00:48:29.006Z,71.53
2022-12-17T00:51:15.728Z,70.32
2022-12-17T00:54:01.187Z,62.53
2022-12-17T00:56:46.568Z,67.43
2022-12-17T00:59:31.850Z,80.90
2022-12-17T01:02:18.850Z,67.15
2022-12-17T01:05:04.764Z,57.63
2022-12-17T01:07:52.419Z,70.68
2022-12-17T01:10:37.744Z,61.70
2022-12-17T01:16:09.868Z,60.47
2022-12-17T01:18:55.424Z,66.38
2022-12-17T01:21:42.058Z,63.10
2022-12-17T01:24:29.150Z,77.72
2022-12-17T01:27:14.529Z,65.25
2022-12-17T01:32:45.488Z,56.72
2022-12-17T01:35:30.717Z,69.55
2022-12-17T01:38:16.650Z,61.13
2022-12-17T01:41:09.379Z,63.50
2022-12-17T01:43:57.348Z,68.22
2022-12-17T01:46:44.130Z,66.05
2022-12-17T01:49:30.471Z,69.60
2022-12-17T01:52:18.562Z,76.55
2022-12-17T01:55:04.400Z,58.85
2022-12-17T01:57:51.726Z,66.07
2022-12-17T02:00:38.403Z,62.55
2022-12-17T02:03:24.453Z,60.80
2022-12-17T02:06:20.140Z,61.47
2022-12-17T02:09:15.695Z,74.80
2022-12-17T02:12:10.299Z,52.25
2022-12-17T02:15:03.260Z,65.85
2022-12-17T02:17:54.794Z,70.05
2022-12-17T02:20:48.461Z,68.53
2022-12-17T02:23:40.735Z,72.20
2022-12-17T02:26:44.619Z,61.20
2022-12-17T02:29:31.990Z,63.95
2022-12-17T02:32:18.741Z,74.30
2022-12-17T02:35:05.549Z,66.05
2022-12-17T02:37:53.307Z,67.18
2022-12-17T02:40:41.249Z,67.82
2022-12-17T02:43:28.975Z,66.32
2022-12-17T02:46:16.225Z,69.07
2022-12-17T02:49:02.352Z,70.63
2022-12-17T02:51:51.918Z,73.80
2022-12-17T02:54:37.328Z,74.47
2022-12-17T02:57:24.465Z,73.40
2022-12-17T03:00:09.845Z,76.32
2022-12-17T03:05:45.884Z,65.65
2022-12-17T03:08:31.820Z,60.00
2022-12-17T03:11:17.733Z,60.22
2022-12-17T03:14:03.033Z,65.93
2022-12-17T03:16:48.691Z,62.47
2022-12-17T03:19:35.509Z,69.80
2022-12-17T03:22:23.971Z,69.32
2022-12-17T03:25:13.243Z,66.18
2022-12-17T03:27:58.543Z,74.72
2022-12-17T03:33:35.627Z,61.38
2022-12-17T03:36:23.211Z,64.88
2022-12-17T03:39:07.755Z,77.45
2022-12-17T03:41:53.645Z,77.65
2022-12-17T03:44:44.327Z,66.40
2022-12-17T03:47:26.161Z,63.08
2022-12-17T03:50:11.640Z,72.75
2022-12-17T03:52:58.537Z,71.18
2022-12-17T03:55:43.901Z,69.70
2022-12-17T04:01:14.817Z,61.65
2022-12-17T04:04:00.323Z,72.03
2022-12-17T04:06:45.678Z,69.38
2022-12-17T04:12:29.334Z,70.78
2022-12-17T04:15:14.784Z,67.88
2022-12-17T04:18:00.185Z,67.07
2022-12-17T04:20:45.496Z,76.03
2022-12-17T04:26:17.576Z,68.70
2022-12-17T04:29:03.136Z,70.13
2022-12-17T04:31:48.444Z,82.00
2022-12-17T04:37:19.289Z,67.20
2022-12-17T04:40:04.793Z,60.17
2022-12-17T04:42:51.889Z,63.22
2022-12-17T04:45:37.245Z,70.90
2022-12-17T04:48:24.816Z,62.85
2022-12-17T04:51:16.166Z,66.28
2022-12-17T04:54:01.857Z,61.47
2022-12-17T04:56:55.774Z,48.90
2022-12-17T04:59:42.570Z,59.15
2022-12-17T05:02:28.097Z,52.35
2022-12-17T05:05:13.704Z,60.03
2022-12-17T05:07:59.163Z,57.45
2022-12-17T05:10:44.500Z,53.15
2022-12-17T05:13:29.878Z,54.50
2022-12-17T05:16:16.980Z,48.70
2022-12-17T05:19:02.454Z,57.22
2022-12-17T05:21:47.832Z,45.75
2022-12-17T05:24:33.415Z,50.70
2022-12-17T05:27:18.886Z,46.72
2022-12-17T05:30:04.290Z,45.78
2022-12-17T05:32:51.031Z,46.28
2022-12-17T05:35:36.325Z,48.30
2022-12-17T05:41:08.204Z,41.05
2022-12-17T05:43:53.507Z,60.10
2022-12-17T05:49:27.362Z,46.17
2022-12-17T05:52:12.784Z,52.33
2022-12-17T05:54:58.223Z,45.30
2022-12-17T05:57:43.593Z,48.00
2022-12-17T06:03:18.687Z,52.30
2022-12-17T06:06:06.617Z,40.13
2022-12-17T06:08:52.045Z,37.75
2022-12-17T06:11:42.922Z,46.85
2022-12-17T06:14:28.431Z,43.70
2022-12-17T06:17:13.941Z,45.30
2022-12-17T06:19:59.351Z,40.97
2022-12-17T06:22:46.141Z,37.38
2022-12-17T06:25:31.537Z,43.22
2022-12-17T06:28:18.039Z,30.65
2022-12-17T06:31:09.203Z,31.08
2022-12-17T06:33:54.679Z,33.15
2022-12-17T06:36:40.700Z,34.65
2022-12-17T06:39:27.845Z,32.20
2022-12-17T06:42:13.749Z,26.63
2022-12-17T06:44:59.367Z,30.58
2022-12-17T06:47:44.606Z,36.13
2022-12-17T06:53:19.586Z,34.80
2022-12-17T06:56:06.624Z,29.30
2022-12-17T06:58:51.904Z,30.45
2022-12-17T07:04:23.433Z,36.67
2022-12-17T07:07:08.962Z,36.58
2022-12-17T07:09:54.548Z,30.02
2022-12-17T07:12:44.516Z,33.35
2022-12-17T07:15:29.854Z,36.35
2022-12-17T07:18:16.981Z,38.83
2022-12-17T07:21:02.341Z,32.88
2022-12-17T07:23:47.818Z,30.45
2022-12-17T07:26:33.538Z,31.23
2022-12-17T07:29:20.693Z,37.83
2022-12-17T07:32:06.083Z,31.73
2022-12-17T07:34:51.559Z,30.58
2022-12-17T07:37:36.940Z,32.50
2022-12-17T07:40:23.145Z,31.50
2022-12-17T07:43:08.727Z,31.13
2022-12-17T07:45:55.602Z,65.25
2022-12-17T07:48:41.344Z,65.93
2022-12-17T07:51:26.654Z,57.67
2022-12-17T07:54:12.288Z,52.22
2022-12-17T07:56:57.582Z,49.65
2022-12-17T07:59:43.063Z,53.97
2022-12-17T08:02:30.036Z,58.45
2022-12-17T08:05:15.479Z,50.05
2022-12-17T08:10:46.743Z,48.47
2022-12-17T08:13:32.200Z,57.17
2022-12-17T08:16:17.618Z,48.30
2022-12-17T08:19:04.553Z,46.50
2022-12-17T08:21:49.937Z,36.22
2022-12-17T08:24:35.400Z,42.35
2022-12-17T08:27:20.942Z,37.08
2022-12-17T08:30:06.385Z,26.55
2022-12-17T08:32:51.720Z,25.35
2022-12-17T08:38:25.453Z,26.05
2022-12-17T08:41:10.874Z,29.80
2022-12-17T08:43:56.357Z,29.02
2022-12-17T08:46:41.683Z,29.52
2022-12-17T08:52:13.954Z,25.63
2022-12-17T08:54:59.268Z,26.85
2022-12-17T09:00:30.922Z,24.17
2022-12-17T09:03:17.210Z,25.92
2022-12-17T09:06:02.894Z,27.00
2022-12-17T09:08:49.835Z,21.45
2022-12-17T09:11:36.022Z,22.52
2022-12-17T09:14:21.360Z,21.50
2022-12-17T09:17:06.962Z,25.75
2022-12-17T09:19:52.490Z,19.65
2022-12-17T09:22:37.818Z,22.30
2022-12-17T09:28:09.743Z,21.60
2022-12-17T09:30:55.120Z,22.70
2022-12-17T09:33:41.023Z,24.38
2022-12-17T09:36:28.244Z,19.70
2022-12-17T09:39:13.624Z,24.38
2022-12-17T09:44:55.155Z,20.00
2022-12-17T09:47:51.297Z,29.05
2022-12-17T09:50:36.680Z,20.30
2022-12-17T09:56:12.079Z,26.55
2022-12-17T09:58:59.686Z,24.30
2022-12-17T10:01:51.260Z,25.30
2022-12-17T10:04:41.796Z,22.10
2022-12-17T10:07:37.229Z,27.20
2022-12-17T10:10:35.511Z,21.85
2022-12-17T10:13:21.078Z,25.45
2022-12-17T10:16:08.233Z,23.58
2022-12-17T10:18:53.566Z,29.42
2022-12-17T10:21:42.132Z,19.45
2022-12-17T10:24:29.525Z,19.75
2022-12-17T10:27:15.650Z,22.77
2022-12-17T10:30:02.879Z,26.65
2022-12-17T10:32:54.730Z,22.95
2022-12-17T10:35:55.303Z,22.52
2022-12-17T10:38:42.581Z,21.20
2022-12-17T10:41:41.887Z,27.48
2022-12-17T10:44:38.072Z,22.35
2022-12-17T10:47:23.505Z,18.80
2022-12-17T10:53:04.079Z,21.27
2022-12-17T10:55:51.644Z,18.30
2022-12-17T10:58:39.680Z,23.27
2022-12-17T11:01:29.381Z,26.02
2022-12-17T11:04:16.156Z,26.55
2022-12-17T11:07:05.015Z,24.63
2022-12-17T11:10:08.673Z,21.80
2022-12-17T11:12:59.901Z,34.92
2022-12-17T11:15:51.345Z,27.58
2022-12-17T11:18:41.367Z,26.92
2022-12-17T11:21:46.230Z,27.15
2022-12-17T11:24:39.978Z,28.85
2022-12-17T11:27:29.453Z,29.92
2022-12-17T11:30:14.991Z,23.50
2022-12-17T11:35:58.929Z,21.65
2022-12-17T11:38:52.719Z,29.30
2022-12-17T11:41:47.664Z,25.17
2022-12-17T11:44:44.694Z,24.80
2022-12-17T11:47:40.664Z,27.95
2022-12-17T11:50:38.295Z,26.27
2022-12-17T11:53:31.079Z,32.85
2022-12-17T11:56:25.272Z,27.48
2022-12-17T11:59:22.132Z,33.35
2022-12-17T12:02:15.394Z,27.50
2022-12-17T12:05:21.464Z,22.00
2022-12-17T12:08:16.435Z,22.65
2022-12-17T12:11:07.358Z,20.23
2022-12-17T12:14:12.072Z,22.42
2022-12-17T12:17:06.954Z,31.13
2022-12-17T12:20:00.757Z,22.83
2022-12-17T12:22:56.329Z,25.45
2022-12-17T12:25:50.721Z,29.77
2022-12-17T12:28:46.701Z,27.45
2022-12-17T12:31:44.407Z,19.02
2022-12-17T12:34:35.891Z,25.27
2022-12-17T12:37:22.361Z,24.33
2022-12-17T12:40:21.946Z,25.05
2022-12-17T12:43:23.607Z,20.02
2022-12-17T12:46:18.303Z,25.33
2022-12-17T12:49:09.842Z,21.92
2022-12-17T12:51:59.132Z,25.30
2022-12-17T12:54:48.119Z,27.83
2022-12-17T12:57:48.604Z,18.38
2022-12-17T13:00:50.590Z,23.27
2022-12-17T13:03:43.617Z,27.17
2022-12-17T13:06:12.503Z,26.67
2022-12-17T13:08:42.392Z,22.02
2022-12-17T13:11:23.524Z,26.35
2022-12-17T13:13:56.802Z,21.88
2022-12-17T13:16:33.968Z,24.33
2022-12-17T13:19:03.518Z,22.58
2022-12-17T13:21:31.744Z,26.05
2022-12-17T13:24:11.665Z,18.83
2022-12-17T13:26:46.120Z,23.25
2022-12-17T13:29:24.268Z,21.42
2022-12-17T13:32:07.358Z,25.08
2022-12-17T13:37:26.079Z,40.00
2022-12-17T13:40:03.374Z,41.75
2022-12-17T13:42:34.583Z,40.17
2022-12-17T13:45:03.289Z,29.02
2022-12-17T13:47:33.209Z,26.70
2022-12-17T13:52:52.997Z,27.33
2022-12-17T13:55:25.576Z,23.83
2022-12-17T13:57:54.585Z,26.45
2022-12-17T14:00:25.853Z,21.13
2022-12-17T14:02:54.752Z,20.23
2022-12-17T14:05:27.419Z,21.73
2022-12-17T14:07:55.977Z,18.85
2022-12-17T14:10:26.412Z,23.70
2022-12-17T14:13:05.141Z,21.67
2022-12-17T14:15:33.883Z,33.42
2022-12-17T14:18:03.324Z,24.92
2022-12-17T14:20:33.809Z,30.00
2022-12-17T14:23:05.296Z,27.35
2022-12-17T14:25:38.014Z,27.75
2022-12-17T14:28:13.521Z,24.08
2022-12-17T14:31:17.299Z,24.27
2022-12-17T14:33:33.819Z,21.08
2022-12-17T14:36:06.062Z,24.08
2022-12-17T14:38:38.743Z,26.98
2022-12-17T14:41:27.608Z,22.25
2022-12-17T14:44:01.107Z,20.42
2022-12-17T14:46:30.563Z,25.17
2022-12-17T14:49:03.621Z,32.63
2022-12-17T14:51:35.008Z,29.85
2022-12-17T14:54:24.212Z,29.05
2022-12-17T14:56:54.680Z,27.95
2022-12-17T14:59:36.310Z,19.10
2022-12-17T15:02:07.121Z,24.13
2022-12-17T15:04:38.021Z,30.02
2022-12-17T15:07:10.849Z,26.80
2022-12-17T15:09:42.114Z,29.50
2022-12-17T15:12:12.106Z,26.48
2022-12-17T15:14:40.070Z,32.55
2022-12-17T15:17:08.081Z,27.63
2022-12-17T15:19:36.653Z,30.60
2022-12-17T15:22:05.202Z,28.10
2022-12-17T15:24:36.835Z,37.78
2022-12-17T15:27:04.895Z,34.78
2022-12-17T15:29:34.615Z,24.65
2022-12-17T15:32:05.648Z,28.98
2022-12-17T15:34:36.935Z,40.30
2022-12-17T15:37:06.153Z,27.30
2022-12-17T15:39:34.050Z,29.27
2022-12-17T15:42:21.357Z,26.67
2022-12-17T15:44:50.968Z,47.17
2022-12-17T15:47:19.347Z,31.77
2022-12-17T15:49:47.422Z,35.67
2022-12-17T15:52:15.986Z,34.25
2022-12-17T15:54:46.721Z,43.67
2022-12-17T15:57:18.503Z,40.38
2022-12-17T15:59:46.894Z,32.63
2022-12-17T16:02:18.502Z,30.15
2022-12-17T16:04:46.972Z,37.05
2022-12-17T16:07:18.764Z,32.13
2022-12-17T16:09:46.824Z,34.17
2022-12-17T16:12:14.858Z,29.35
2022-12-17T16:14:42.957Z,39.92
2022-12-17T16:17:11.360Z,36.90
2022-12-17T16:19:40.843Z,57.08
2022-12-17T16:22:09.224Z,48.60
2022-12-17T16:24:37.343Z,55.35
2022-12-17T16:27:05.451Z,58.22
2022-12-17T16:29:33.925Z,40.67
2022-12-17T16:32:02.301Z,45.33
2022-12-17T16:34:30.423Z,35.72
2022-12-17T16:37:01.322Z,36.85
2022-12-17T16:39:29.884Z,29.00
2022-12-17T16:41:57.854Z,38.47
2022-12-17T16:44:25.919Z,35.80
2022-12-17T16:46:54.010Z,34.55
2022-12-17T16:49:23.928Z,30.92
2022-12-17T16:51:53.065Z,32.80
2022-12-17T16:54:24.116Z,32.90
2022-12-17T16:56:52.532Z,39.05
2022-12-17T16:59:20.598Z,35.13
2022-12-17T17:01:50.700Z,37.63
2022-12-17T17:04:21.070Z,33.08
2022-12-17T17:06:51.054Z,36.90
2022-12-17T17:09:19.782Z,39.42
2022-12-17T17:11:51.767Z,31.77
2022-12-17T17:14:20.578Z,22.17
2022-12-17T17:16:48.857Z,27.60
2022-12-17T17:19:17.159Z,36.15
2022-12-17T17:21:54.046Z,29.17
2022-12-17T17:24:24.332Z,34.20
2022-12-17T17:26:54.503Z,35.03
2022-12-17T17:29:22.750Z,25.65
2022-12-17T17:32:09.895Z,45.30
2022-12-17T17:34:39.031Z,28.95
2022-12-17T17:37:07.205Z,32.00
2022-12-17T17:39:35.452Z,37.78
2022-12-17T17:42:12.023Z,42.28
2022-12-17T17:44:42.068Z,34.67
2022-12-17T17:47:10.105Z,43.17
2022-12-17T17:49:38.133Z,35.90
2022-12-17T17:52:10.718Z,47.92
2022-12-17T17:54:40.145Z,41.50
2022-12-17T17:57:09.794Z,32.90
2022-12-17T17:59:39.254Z,39.03
2022-12-17T18:02:08.676Z,31.80
2022-12-17T18:04:36.950Z,33.20
2022-12-17T18:09:56.101Z,38.60
2022-12-17T18:12:45.089Z,33.92
2022-12-17T18:15:15.315Z,35.15
2022-12-17T18:17:45.548Z,34.38
2022-12-17T18:20:13.584Z,39.78
2022-12-17T18:22:41.675Z,30.65
2022-12-17T18:25:10.491Z,50.08
2022-12-17T18:27:40.042Z,41.85
2022-12-17T18:30:09.015Z,50.22
2022-12-17T18:32:37.006Z,39.33
2022-12-17T18:35:05.381Z,38.97
2022-12-17T18:37:33.490Z,37.30
2022-12-17T18:40:01.430Z,33.67
2022-12-17T18:42:46.760Z,41.97
2022-12-17T18:45:16.173Z,27.58
2022-12-17T18:47:44.713Z,31.60
2022-12-17T18:50:13.649Z,36.85
2022-12-17T18:52:42.312Z,36.40
2022-12-17T18:55:10.410Z,35.55
2022-12-17T18:57:38.420Z,28.92
2022-12-17T19:00:08.317Z,40.53
2022-12-17T19:02:37.854Z,35.08
2022-12-17T19:05:06.488Z,35.08
2022-12-17T19:07:34.585Z,32.83
2022-12-17T19:10:02.782Z,25.52
2022-12-17T19:12:30.881Z,69.32
2022-12-17T19:14:58.923Z,57.97
2022-12-17T19:17:27.958Z,47.13
2022-12-17T19:19:57.364Z,54.38
2022-12-17T19:22:25.377Z,50.78
2022-12-17T19:24:55.345Z,45.25
2022-12-17T19:27:23.298Z,37.70
2022-12-17T19:29:54.985Z,35.95
2022-12-17T19:32:23.591Z,49.97
2022-12-17T19:34:51.577Z,42.55
2022-12-17T19:37:20.916Z,44.60
2022-12-17T19:39:48.912Z,63.40
2022-12-17T19:42:25.340Z,74.78
2022-12-17T19:44:53.896Z,70.88
2022-12-17T19:47:22.408Z,110.00
2022-12-17T19:49:50.544Z,103.57
2022-12-17T19:52:19.851Z,76.55
2022-12-17T19:54:49.825Z,62.85
2022-12-17T19:57:17.784Z,48.65
2022-12-17T19:59:45.729Z,70.25
2022-12-17T20:02:15.606Z,64.80
2022-12-17T20:04:43.848Z,106.75
2022-12-17T20:07:12.120Z,92.45
2022-12-17T20:09:44.594Z,63.47
2022-12-17T20:12:13.089Z,76.53
2022-12-17T20:14:41.001Z,73.72
2022-12-17T20:17:09.300Z,65.10
2022-12-17T20:19:37.437Z,61.17
2022-12-17T20:22:06.806Z,48.50
2022-12-17T20:24:39.245Z,64.15
2022-12-17T20:27:08.683Z,47.60
2022-12-17T20:29:36.824Z,40.05
2022-12-17T20:32:05.151Z,45.17
2022-12-17T20:34:37.720Z,48.25
2022-12-17T20:37:05.813Z,57.65
2022-12-17T20:39:33.976Z,51.97
2022-12-17T20:42:01.972Z,53.13
2022-12-17T20:44:31.800Z,51.38
2022-12-17T20:47:01.337Z,57.30
2022-12-17T20:49:29.502Z,63.40
2022-12-17T20:51:59.423Z,51.00
2022-12-17T20:54:30.158Z,53.65
2022-12-17T20:56:58.155Z,49.08
2022-12-17T20:59:26.110Z,50.17
2022-12-17T21:01:56.446Z,47.35
2022-12-17T21:04:24.790Z,50.75
2022-12-17T21:06:52.958Z,49.40
2022-12-17T21:09:22.502Z,40.90
2022-12-17T21:11:50.566Z,39.85
2022-12-17T21:14:26.402Z,42.10
2022-12-17T21:16:58.827Z,43.38
2022-12-17T21:19:28.521Z,49.20
2022-12-17T21:21:56.760Z,45.70
2022-12-17T21:24:24.896Z,42.20
2022-12-17T21:26:52.922Z,39.13
2022-12-17T21:29:21.318Z,47.10
2022-12-17T21:31:51.145Z,37.05
2022-12-17T21:34:25.284Z,48.75
2022-12-17T21:36:53.602Z,33.10
2022-12-17T21:39:22.237Z,48.75
2022-12-17T21:42:04.680Z,48.90
2022-12-17T21:44:32.985Z,50.70
2022-12-17T21:47:15.248Z,37.25
2022-12-17T21:49:47.120Z,45.67
2022-12-17T21:52:15.119Z,44.22
2022-12-17T21:54:43.082Z,41.53
2022-12-17T21:57:11.015Z,42.13
2022-12-17T21:59:42.102Z,44.38
2022-12-17T22:02:11.397Z,39.00
2022-12-17T22:04:39.745Z,49.40
2022-12-17T22:07:11.188Z,48.28
2022-12-17T22:10:13.394Z,44.65
2022-12-17T22:12:50.950Z,42.35
2022-12-17T22:15:19.064Z,49.42
2022-12-17T22:17:48.218Z,41.97
2022-12-17T22:20:17.421Z,40.38
2022-12-17T22:22:46.704Z,48.63
2022-12-17T22:25:15.235Z,40.30
2022-12-17T22:27:43.469Z,43.88
2022-12-17T22:30:33.293Z,59.70
2022-12-17T22:33:02.327Z,50.67
2022-12-17T22:36:54.065Z,44.65
2022-12-17T22:42:22.058Z,41.47
2022-12-17T22:44:34.738Z,46.15
2022-12-17T22:44:48.776Z,42.95
2022-12-17T22:47:09.540Z,50.88
2022-12-17T22:49:38.571Z,49.90
2022-12-17T22:52:06.724Z,45.25
2022-12-17T22:54:36.343Z,46.53
2022-12-17T22:57:35.401Z,40.22
2022-12-17T22:59:52.806Z,32.85
2022-12-17T23:02:20.828Z,36.97
2022-12-17T23:04:48.895Z,42.17
2022-12-17T23:07:16.945Z,44.15
2022-12-17T23:09:46.234Z,41.35
2022-12-17T23:12:31.403Z,43.83
2022-12-17T23:14:59.336Z,32.45
2022-12-17T23:17:27.246Z,33.50
2022-12-17T23:19:55.173Z,38.33
2022-12-17T23:22:23.164Z,36.70
2022-12-17T23:24:52.517Z,44.88
2022-12-17T23:27:20.466Z,40.35
2022-12-17T23:29:48.488Z,42.78
2022-12-17T23:32:16.390Z,36.72
2022-12-17T23:34:44.323Z,49.50
2022-12-17T23:37:12.317Z,53.15
2022-12-17T23:39:40.392Z,39.05
2022-12-17T23:42:09.977Z,31.30
2022-12-17T23:44:37.968Z,32.95
2022-12-17T23:47:05.969Z,41.10
2022-12-17T23:49:33.944Z,39.22
2022-12-17T23:52:01.902Z,41.17
2022-12-17T23:54:30.122Z,44.13
2022-12-17T23:56:58.058Z,35.85
2022-12-17T23:59:27.477Z,41.45
